Time;durP1;ratioP1;P1;durP2;ratioP2;P2;SDS_P1;SDS_P2;PMS_P1;PMS_P2;Temp;Humidity;BMP_temperature;BMP_pressure;BME280_temperature;BME280_humidity;BME280_pressure;Samples;Min_cycle;Max_cycle;Signal;HPM_P1;HPM_P2
2022/03/17 00:01:54;;;;;;;9.68;8.68;;;23.30;36.30;;;;;;5044220;28;20045;-47
2022/03/17 00:04:21;;;;;;;10.13;8.95;;;23.30;36.30;;;;;;5044521;28;20489;-47
2022/03/17 00:06:48;;;;;;;8.20;7.30;;;23.30;36.20;;;;;;5045594;28;20052;-47
2022/03/17 00:09:14;;;;;;;9.13;8.02;;;23.30;36.20;;;;;;5044922;28;20028;-47
2022/03/17 00:11:41;;;;;;;9.07;8.18;;;23.30;36.20;;;;;;5045737;28;20029;-48
2022/03/17 00:14:07;;;;;;;9.82;8.18;;;23.30;36.20;;;;;;5045949;28;20543;-48
2022/03/17 00:16:33;;;;;;;9.07;8.13;;;23.30;36.10;;;;;;5045820;28;20033;-48
2022/03/17 00:18:58;;;;;;;9.48;8.40;;;23.20;36.00;;;;;;5045244;28;20588;-48
2022/03/17 00:21:24;;;;;;;10.07;8.60;;;23.20;36.00;;;;;;5045171;28;20528;-48
2022/03/17 00:23:50;;;;;;;8.20;7.35;;;23.20;36.00;;;;;;5045740;28;20044;-47
2022/03/17 00:26:17;;;;;;;9.43;7.55;;;23.20;36.00;;;;;;5041161;28;20032;-48
2022/03/17 00:28:42;;;;;;;8.63;7.63;;;23.20;36.00;;;;;;5045005;28;20041;-48
2022/03/17 00:31:08;;;;;;;9.52;8.27;;;23.30;36.10;;;;;;5045243;28;20553;-48
2022/03/17 00:33:34;;;;;;;8.60;7.45;;;23.20;35.90;;;;;;5045399;28;20029;-48
2022/03/17 00:36:00;;;;;;;8.88;7.75;;;23.20;36.00;;;;;;5045183;28;20037;-49
2022/03/17 00:38:25;;;;;;;9.05;7.75;;;23.20;35.90;;;;;;5045175;28;20028;-47
2022/03/17 00:40:51;;;;;;;7.90;6.95;;;23.20;35.90;;;;;;5043334;28;20032;-47
2022/03/17 00:43:17;;;;;;;7.97;7.18;;;23.20;36.10;;;;;;5045219;28;20400;-47
2022/03/17 00:45:44;;;;;;;8.63;7.38;;;23.20;36.00;;;;;;5045398;28;20032;-47
2022/03/17 00:48:10;;;;;;;8.85;7.95;;;23.20;36.70;;;;;;5044703;28;20017;-48
2022/03/17 00:50:37;;;;;;;9.02;7.40;;;23.20;36.00;;;;;;5044467;28;20040;-48
2022/03/17 00:53:04;;;;;;;8.00;7.20;;;23.10;35.90;;;;;;5044531;28;20063;-47
2022/03/17 00:55:30;;;;;;;8.35;7.43;;;23.10;35.90;;;;;;5045008;28;20061;-48
2022/03/17 00:57:56;;;;;;;8.73;7.82;;;23.20;35.90;;;;;;5043556;28;20094;-48
2022/03/17 01:00:23;;;;;;;8.52;7.63;;;23.10;35.80;;;;;;5026457;28;20025;-47
2022/03/17 01:02:51;;;;;;;7.80;7.00;;;23.10;35.90;;;;;;5044238;28;20066;-48
2022/03/17 01:05:18;;;;;;;8.10;6.75;;;23.10;35.80;;;;;;5044962;28;20024;-48
2022/03/17 01:07:44;;;;;;;8.15;7.00;;;23.10;35.80;;;;;;5044436;28;20052;-48
2022/03/17 01:10:13;;;;;;;7.88;6.50;;;23.10;35.70;;;;;;5036857;28;20393;-48
2022/03/17 01:12:39;;;;;;;8.52;7.10;;;23.00;35.60;;;;;;5024759;28;20112;-48
2022/03/17 01:15:06;;;;;;;8.15;6.80;;;23.10;35.70;;;;;;5024893;28;20641;-48
2022/03/17 01:17:31;;;;;;;7.60;6.80;;;23.10;35.70;;;;;;5024686;28;20053;-48
2022/03/17 01:19:57;;;;;;;7.15;6.45;;;23.00;35.70;;;;;;5024374;28;20076;-48
2022/03/17 01:22:23;;;;;;;7.72;6.93;;;23.00;35.60;;;;;;5024478;28;20041;-47
2022/03/17 01:24:51;;;;;;;7.93;7.13;;;23.00;35.70;;;;;;5026695;28;20059;-47
2022/03/17 01:27:23;;;;;;;9.02;7.47;;;23.00;35.60;;;;;;5024394;28;20501;-48
2022/03/17 01:29:53;;;;;;;7.85;6.43;;;23.00;35.60;;;;;;5024222;28;20112;-47
2022/03/17 01:32:20;;;;;;;9.23;7.55;;;23.00;35.60;;;;;;5039543;28;20090;-48
2022/03/17 01:34:46;;;;;;;7.35;6.55;;;23.00;35.70;;;;;;5043018;28;20029;-48
2022/03/17 01:37:12;;;;;;;9.25;7.40;;;23.00;35.60;;;;;;5044661;28;20022;-48
2022/03/17 01:39:38;;;;;;;7.50;6.70;;;23.00;35.60;;;;;;5044187;28;20025;-47
2022/03/17 01:42:06;;;;;;;7.40;6.40;;;23.00;35.60;;;;;;5044206;28;20036;-47
2022/03/17 01:44:32;;;;;;;8.15;6.68;;;23.00;35.50;;;;;;5044551;28;20029;-47
2022/03/17 01:49:43;;;;;;;7.80;6.57;;;22.90;35.50;;;;;;5027363;28;20032;-48
2022/03/17 01:52:09;;;;;;;7.32;6.43;;;22.90;35.50;;;;;;5024407;28;20026;-47
2022/03/17 01:54:36;;;;;;;7.82;7.03;;;22.90;35.50;;;;;;5025197;28;20029;-48
2022/03/17 01:57:04;;;;;;;7.78;6.82;;;22.90;35.40;;;;;;5043993;28;20017;-47
2022/03/17 01:59:33;;;;;;;7.55;6.53;;;22.90;36.10;;;;;;5042496;28;20056;-47
2022/03/17 02:01:58;;;;;;;7.43;6.43;;;22.90;35.40;;;;;;5043417;28;20182;-47
2022/03/17 02:04:24;;;;;;;7.90;7.10;;;22.90;35.50;;;;;;5044435;28;20401;-47
2022/03/17 02:06:51;;;;;;;7.53;6.72;;;22.80;35.30;;;;;;5044126;28;20040;-47
2022/03/17 02:09:20;;;;;;;7.22;6.47;;;22.90;35.50;;;;;;5044267;28;20458;-48
2022/03/17 02:14:34;;;;;;;7.22;6.50;;;22.90;35.50;;;;;;5045009;28;20392;-48
2022/03/17 02:17:00;;;;;;;7.28;6.22;;;22.80;35.40;;;;;;5044508;28;20032;-47
2022/03/17 02:19:26;;;;;;;7.47;6.65;;;22.80;35.40;;;;;;5044107;28;20047;-48
2022/03/17 02:21:52;;;;;;;6.80;6.10;;;22.80;35.30;;;;;;5045054;28;20429;-47
2022/03/17 02:27:03;;;;;;;7.80;6.22;;;22.80;35.30;;;;;;5027759;28;20146;-48
2022/03/17 02:29:31;;;;;;;6.80;6.10;;;22.80;35.30;;;;;;5027797;28;20041;-48
2022/03/17 02:31:58;;;;;;;7.22;6.10;;;22.80;35.30;;;;;;5039980;28;20023;-48
2022/03/17 02:34:23;;;;;;;7.35;6.40;;;22.80;35.20;;;;;;5047951;28;20029;-47
2022/03/17 02:36:51;;;;;;;8.02;6.07;;;22.80;35.20;;;;;;5047409;28;20025;-47
2022/03/17 02:39:19;;;;;;;6.63;5.93;;;22.80;35.20;;;;;;5047474;28;20043;-47
2022/03/17 02:41:45;;;;;;;7.47;6.68;;;22.80;35.20;;;;;;5046836;28;20033;-47
2022/03/17 02:44:12;;;;;;;6.57;5.78;;;22.80;35.20;;;;;;5047204;28;20043;-47
2022/03/17 02:46:38;;;;;;;6.80;6.07;;;22.80;35.20;;;;;;5047426;28;20056;-48
2022/03/17 02:49:04;;;;;;;6.70;5.97;;;22.80;35.10;;;;;;5047170;28;20037;-47
2022/03/17 02:51:30;;;;;;;7.57;6.53;;;22.70;35.20;;;;;;5046904;28;20417;-47
2022/03/17 02:53:56;;;;;;;6.82;6.13;;;22.70;35.20;;;;;;5046195;28;20094;-47
2022/03/17 02:56:21;;;;;;;7.45;6.65;;;22.70;35.20;;;;;;5046815;28;20041;-48
2022/03/17 02:58:47;;;;;;;7.18;6.38;;;22.70;35.20;;;;;;5046335;28;20036;-47
2022/03/17 03:01:13;;;;;;;7.20;6.22;;;22.70;35.20;;;;;;5046955;28;20048;-47
2022/03/17 03:03:39;;;;;;;6.85;6.15;;;22.70;35.20;;;;;;5047341;28;20037;-48
2022/03/17 03:06:04;;;;;;;6.57;5.68;;;22.70;35.10;;;;;;5047135;28;20203;-47
2022/03/17 03:08:30;;;;;;;6.78;6.03;;;22.70;35.10;;;;;;5046540;28;20048;-46
2022/03/17 03:10:59;;;;;;;6.75;6.00;;;22.70;35.10;;;;;;5044616;28;20033;-47
2022/03/17 03:13:25;;;;;;;6.75;6.05;;;22.70;35.10;;;;;;5045985;28;20044;-46
2022/03/17 03:15:51;;;;;;;7.57;6.30;;;22.70;35.10;;;;;;5047182;28;20024;-47
2022/03/17 03:18:17;;;;;;;6.85;6.07;;;22.70;35.10;;;;;;5046413;28;20102;-48
2022/03/17 03:20:43;;;;;;;7.32;5.95;;;22.70;35.00;;;;;;5046392;28;20461;-48
2022/03/17 03:23:10;;;;;;;7.30;6.47;;;22.70;35.00;;;;;;5046858;28;20103;-48
2022/03/17 03:25:35;;;;;;;5.78;5.18;;;22.70;35.00;;;;;;5045347;28;20020;-47
2022/03/17 03:28:05;;;;;;;6.45;5.82;;;22.60;34.90;;;;;;5046699;28;20263;-48
2022/03/17 03:30:31;;;;;;;6.63;6.03;;;22.60;34.90;;;;;;5046621;28;21374;-48
2022/03/17 03:32:57;;;;;;;6.28;5.63;;;22.60;34.90;;;;;;5046626;28;20025;-47
2022/03/17 03:38:07;;;;;;;7.43;6.72;;;22.60;34.90;;;;;;5046864;28;20035;-47
2022/03/17 03:40:33;;;;;;;6.35;5.63;;;22.60;34.90;;;;;;5046515;28;20036;-47
2022/03/17 03:42:59;;;;;;;6.50;5.90;;;22.60;34.90;;;;;;5046450;28;20039;-47
2022/03/17 03:45:25;;;;;;;6.90;6.07;;;22.60;34.90;;;;;;5046817;28;20036;-48
2022/03/17 03:47:50;;;;;;;6.97;6.07;;;22.60;34.90;;;;;;5046123;28;20028;-47
2022/03/17 03:50:16;;;;;;;6.85;6.13;;;22.60;34.90;;;;;;5045907;28;20021;-47
2022/03/17 03:52:43;;;;;;;6.35;5.72;;;22.60;34.90;;;;;;5046434;28;20052;-48
2022/03/17 03:55:09;;;;;;;5.95;5.25;;;22.60;34.90;;;;;;5044854;28;20091;-47
2022/03/17 03:57:35;;;;;;;6.35;5.60;;;22.60;34.80;;;;;;5046121;28;20029;-48
2022/03/17 04:00:04;;;;;;;6.10;5.40;;;22.60;34.80;;;;;;5045614;28;20037;-46
2022/03/17 04:02:29;;;;;;;7.00;6.30;;;22.60;34.80;;;;;;5046021;28;20568;-48
2022/03/17 04:04:55;;;;;;;6.78;6.07;;;22.50;34.80;;;;;;5045874;28;20408;-47
2022/03/17 04:07:21;;;;;;;6.43;5.82;;;22.50;34.80;;;;;;5045503;28;20064;-47
2022/03/17 04:09:46;;;;;;;6.70;6.00;;;22.50;34.80;;;;;;5045834;28;20033;-47
2022/03/17 04:12:13;;;;;;;6.00;5.22;;;22.60;34.70;;;;;;5045914;28;20036;-47
2022/03/17 04:14:39;;;;;;;6.72;6.03;;;22.50;34.70;;;;;;5042571;28;20578;-48
2022/03/17 04:17:05;;;;;;;6.53;5.82;;;22.50;34.70;;;;;;5025640;28;20111;-47
2022/03/17 04:19:31;;;;;;;7.40;6.50;;;22.50;34.70;;;;;;5025498;28;20033;-48
2022/03/17 04:21:57;;;;;;;6.00;5.40;;;22.50;34.70;;;;;;5025529;28;20087;-47
2022/03/17 04:24:23;;;;;;;7.15;6.30;;;22.50;34.70;;;;;;5025330;28;20308;-48
2022/03/17 04:26:50;;;;;;;6.88;6.18;;;22.50;34.70;;;;;;5041918;28;20112;-47
2022/03/17 04:29:16;;;;;;;6.95;6.25;;;22.50;34.70;;;;;;5045579;28;20465;-48
2022/03/17 04:31:43;;;;;;;6.93;6.20;;;22.50;34.70;;;;;;5045448;28;20108;-48
2022/03/17 04:34:09;;;;;;;6.25;5.65;;;22.50;34.70;;;;;;5043875;28;20025;-47
2022/03/17 04:36:36;;;;;;;6.28;5.60;;;22.50;34.60;;;;;;5045618;28;20455;-48
2022/03/17 04:39:03;;;;;;;6.90;6.20;;;22.50;34.60;;;;;;5044399;28;20028;-48
2022/03/17 04:41:29;;;;;;;6.53;5.82;;;22.50;34.60;;;;;;5044903;28;20028;-48
2022/03/17 04:43:55;;;;;;;7.60;5.82;;;22.50;34.90;;;;;;5045119;28;20033;-48
2022/03/17 04:46:21;;;;;;;6.65;5.72;;;22.50;34.50;;;;;;5026623;28;20032;-50
2022/03/17 04:48:47;;;;;;;6.15;5.55;;;22.50;34.50;;;;;;5044830;28;20082;-47
2022/03/17 04:51:13;;;;;;;6.07;5.28;;;22.50;34.50;;;;;;5045197;28;20063;-46
2022/03/17 04:53:39;;;;;;;7.15;5.80;;;22.50;34.50;;;;;;5045549;28;20036;-48
2022/03/17 04:56:09;;;;;;;6.97;5.30;;;22.50;34.50;;;;;;5045084;28;20070;-47
2022/03/17 04:58:37;;;;;;;6.55;5.53;;;22.50;34.40;;;;;;5044808;28;20086;-47
2022/03/17 05:01:04;;;;;;;6.68;5.97;;;22.50;34.40;;;;;;5044882;28;20616;-47
2022/03/17 05:03:31;;;;;;;6.53;5.43;;;22.50;34.40;;;;;;5045012;28;20489;-48
2022/03/17 05:05:57;;;;;;;6.47;5.88;;;22.50;34.40;;;;;;5044640;28;20703;-48
2022/03/17 05:08:23;;;;;;;6.82;6.03;;;22.50;34.40;;;;;;5044710;28;20029;-47
2022/03/17 05:10:52;;;;;;;5.68;5.07;;;22.50;34.30;;;;;;5044139;28;20025;-48
2022/03/17 05:13:19;;;;;;;6.43;5.75;;;22.50;34.30;;;;;;5044785;28;20078;-47
2022/03/17 05:15:49;;;;;;;6.72;5.78;;;22.40;34.30;;;;;;5044482;28;20603;-49
2022/03/17 05:18:15;;;;;;;6.53;5.82;;;22.50;34.40;;;;;;5044992;28;20586;-48
2022/03/17 05:20:41;;;;;;;5.97;5.38;;;22.50;34.40;;;;;;5044690;28;20076;-47
2022/03/17 05:23:10;;;;;;;6.25;5.65;;;22.50;34.60;;;;;;5044702;28;20044;-47
2022/03/17 05:25:38;;;;;;;6.40;5.60;;;22.50;34.60;;;;;;5040612;28;20090;-48
2022/03/17 05:28:04;;;;;;;7.28;6.28;;;22.50;34.70;;;;;;5043988;28;20154;-46
2022/03/17 05:30:30;;;;;;;6.38;5.32;;;22.50;34.70;;;;;;5043785;28;20033;-48
2022/03/17 05:32:56;;;;;;;6.90;5.80;;;22.50;34.70;;;;;;5043443;28;20032;-47
2022/03/17 05:35:23;;;;;;;5.90;5.15;;;22.60;34.70;;;;;;5044102;28;20029;-48
2022/03/17 05:37:50;;;;;;;6.13;5.40;;;22.60;34.70;;;;;;5043862;28;20021;-48
2022/03/17 05:40:18;;;;;;;5.88;4.80;;;22.60;34.60;;;;;;5043107;28;20029;-49
2022/03/17 05:42:47;;;;;;;5.60;4.80;;;22.60;34.60;;;;;;5044563;28;20120;-48
2022/03/17 05:45:17;;;;;;;5.28;4.78;;;22.70;34.60;;;;;;5044170;28;20568;-47
2022/03/17 05:47:45;;;;;;;6.10;5.03;;;22.70;34.50;;;;;;5043974;28;20068;-48
2022/03/17 05:50:14;;;;;;;6.25;5.32;;;22.80;34.50;;;;;;5042527;28;20637;-48
2022/03/17 05:52:42;;;;;;;5.65;4.78;;;22.80;34.40;;;;;;5043396;28;20021;-47
2022/03/17 05:55:09;;;;;;;6.35;5.07;;;22.80;34.30;;;;;;5030987;28;20539;-49
2022/03/17 05:57:40;;;;;;;6.35;5.45;;;22.90;34.40;;;;;;5027681;28;20033;-48
2022/03/17 06:00:08;;;;;;;5.65;4.55;;;22.90;34.40;;;;;;5043617;28;20433;-49
2022/03/17 06:02:34;;;;;;;5.90;4.93;;;23.00;34.40;;;;;;5047602;28;20117;-50
2022/03/17 06:05:00;;;;;;;5.93;4.85;;;23.00;34.50;;;;;;5047148;28;20085;-47
2022/03/17 06:07:34;;;;;;;5.93;5.18;;;23.00;34.60;;;;;;5047010;28;20094;-48
2022/03/17 06:10:00;;;;;;;6.75;5.95;;;23.00;34.60;;;;;;5046141;28;20692;-48
2022/03/17 06:12:25;;;;;;;6.85;6.15;;;23.10;34.80;;;;;;5043968;28;20103;-47
2022/03/17 06:14:51;;;;;;;6.95;6.25;;;23.10;34.40;;;;;;5046815;28;20404;-48
2022/03/17 06:17:17;;;;;;;7.32;6.60;;;23.20;34.40;;;;;;5047171;28;20533;-48
2022/03/17 06:19:43;;;;;;;7.38;6.68;;;23.20;34.50;;;;;;5046745;28;20029;-48
2022/03/17 06:22:09;;;;;;;8.60;7.18;;;23.20;34.60;;;;;;5045190;28;20068;-48
2022/03/17 06:24:34;;;;;;;9.27;8.27;;;23.20;34.50;;;;;;5044932;28;20029;-48
2022/03/17 06:27:00;;;;;;;10.73;9.73;;;23.20;34.00;;;;;;5046100;28;20170;-48
2022/03/17 06:29:26;;;;;;;10.65;9.65;;;23.30;33.80;;;;;;5045775;28;20029;-47
2022/03/17 06:31:52;;;;;;;10.50;9.50;;;23.20;33.50;;;;;;5025586;28;20368;-48
2022/03/17 06:34:18;;;;;;;12.25;11.02;;;23.20;33.20;;;;;;5025263;28;20144;-48
2022/03/17 06:36:44;;;;;;;12.15;11.00;;;23.20;33.20;;;;;;5037273;28;20025;-47
2022/03/17 06:39:09;;;;;;;12.00;10.80;;;23.20;33.00;;;;;;5043477;28;20027;-47
2022/03/17 06:41:35;;;;;;;13.48;12.23;;;23.20;32.90;;;;;;5043932;28;20265;-47
2022/03/17 06:44:01;;;;;;;13.45;12.18;;;23.20;32.80;;;;;;5044063;28;20021;-47
2022/03/17 06:46:26;;;;;;;14.77;13.38;;;23.20;32.90;;;;;;5044452;28;20040;-48
2022/03/17 06:48:52;;;;;;;15.07;13.68;;;23.30;32.80;;;;;;5043714;28;20021;-49
2022/03/17 06:51:18;;;;;;;15.27;13.88;;;23.20;32.60;;;;;;5043613;28;20018;-48
2022/03/17 06:53:43;;;;;;;14.98;13.68;;;23.20;32.60;;;;;;5044384;28;20029;-48
2022/03/17 06:56:09;;;;;;;15.40;14.10;;;23.20;32.60;;;;;;5045403;28;20630;-49
2022/03/17 06:58:35;;;;;;;14.98;13.57;;;23.20;32.80;;;;;;5044691;28;20033;-49
2022/03/17 07:01:00;;;;;;;15.55;14.15;;;23.20;32.80;;;;;;5044126;28;20025;-48
2022/03/17 07:03:26;;;;;;;15.13;13.82;;;23.20;32.90;;;;;;5045666;28;20013;-48
2022/03/17 07:05:52;;;;;;;14.65;13.25;;;23.20;32.80;;;;;;5045125;28;20112;-48
2022/03/17 07:08:17;;;;;;;13.70;12.40;;;23.20;32.80;;;;;;5044906;28;20025;-48
2022/03/17 07:10:43;;;;;;;14.35;12.95;;;23.20;32.80;;;;;;5044193;28;20083;-48
2022/03/17 07:13:09;;;;;;;12.93;11.73;;;23.20;32.80;;;;;;5045911;28;20021;-47
2022/03/17 07:15:34;;;;;;;12.02;10.82;;;23.20;32.90;;;;;;5045344;28;20056;-49
2022/03/17 07:18:00;;;;;;;13.38;12.18;;;23.20;32.80;;;;;;5044806;28;20021;-49
2022/03/17 07:20:26;;;;;;;13.27;12.02;;;23.20;32.80;;;;;;5044641;28;20031;-47
2022/03/17 07:22:51;;;;;;;11.88;10.77;;;23.10;32.80;;;;;;5044883;28;20025;-48
2022/03/17 07:25:18;;;;;;;12.57;11.48;;;23.20;32.90;;;;;;5044331;28;20017;-47
2022/03/17 07:27:46;;;;;;;13.07;11.88;;;23.10;32.90;;;;;;5034293;28;20782;-48
2022/03/17 07:30:23;;;;;;;12.38;11.18;;;23.10;32.80;;;;;;5044676;28;20036;-47
2022/03/17 07:32:55;;;;;;;12.15;11.05;;;23.20;32.80;;;;;;5027123;28;20025;-48
2022/03/17 07:35:25;;;;;;;10.77;9.77;;;23.20;32.80;;;;;;5043187;28;20086;-48
2022/03/17 07:37:52;;;;;;;11.45;10.25;;;23.20;32.90;;;;;;5043262;28;20159;-49
2022/03/17 07:40:18;;;;;;;10.75;9.65;;;23.20;33.00;;;;;;5035638;28;20087;-48
2022/03/17 07:42:44;;;;;;;11.90;10.68;;;23.20;33.00;;;;;;5042879;28;20033;-47
2022/03/17 07:45:11;;;;;;;12.32;11.13;;;23.20;33.10;;;;;;5026656;28;20027;-48
2022/03/17 07:47:47;;;;;;;11.68;10.57;;;23.20;33.20;;;;;;5044469;28;20087;-49
2022/03/17 07:50:14;;;;;;;9.75;8.85;;;23.20;33.40;;;;;;5043403;28;20116;-46
2022/03/17 07:52:39;;;;;;;11.57;10.48;;;23.20;33.60;;;;;;5036273;28;20025;-48
2022/03/17 07:55:06;;;;;;;11.63;10.43;;;23.30;33.80;;;;;;5024283;28;20076;-48
2022/03/17 07:57:35;;;;;;;11.85;10.75;;;23.30;34.50;;;;;;5025113;28;20040;-48
2022/03/17 08:00:01;;;;;;;10.68;9.60;;;23.30;33.90;;;;;;5025413;28;20101;-48
2022/03/17 08:02:27;;;;;;;11.30;9.93;;;23.30;34.00;;;;;;5024532;28;20038;-48
2022/03/17 08:04:53;;;;;;;9.93;8.93;;;23.30;34.00;;;;;;5025124;28;20037;-48
2022/03/17 08:07:20;;;;;;;9.90;8.88;;;23.30;34.00;;;;;;5025937;28;20037;-48
2022/03/17 08:09:45;;;;;;;9.98;8.98;;;23.30;34.00;;;;;;5025152;28;20060;-48
2022/03/17 08:12:11;;;;;;;10.38;9.23;;;23.40;34.00;;;;;;5039407;28;20475;-47
2022/03/17 08:14:37;;;;;;;10.80;9.70;;;23.30;34.00;;;;;;5045468;28;20029;-48
2022/03/17 08:17:04;;;;;;;8.90;8.07;;;23.40;34.00;;;;;;5045484;28;20086;-48
2022/03/17 08:19:31;;;;;;;9.27;8.30;;;23.40;34.00;;;;;;5045062;28;20029;-49
2022/03/17 08:21:58;;;;;;;9.68;8.77;;;23.40;34.00;;;;;;5045225;28;20033;-49
2022/03/17 08:24:24;;;;;;;9.40;8.48;;;23.40;34.10;;;;;;5031138;28;20136;-49
2022/03/17 08:26:51;;;;;;;10.52;9.50;;;23.40;34.00;;;;;;5024751;28;20581;-49
2022/03/17 08:29:17;;;;;;;10.63;9.63;;;23.40;34.00;;;;;;5033842;28;20032;-48
2022/03/17 08:31:42;;;;;;;10.10;9.05;;;23.40;34.00;;;;;;5032479;28;20495;-49
2022/03/17 08:34:08;;;;;;;8.85;7.90;;;23.40;34.00;;;;;;5042263;28;20037;-47
2022/03/17 08:36:34;;;;;;;9.10;8.20;;;23.40;34.00;;;;;;5043381;28;20017;-48
2022/03/17 08:39:00;;;;;;;8.82;7.95;;;23.40;33.90;;;;;;5043607;28;20392;-48
2022/03/17 08:41:25;;;;;;;9.02;8.20;;;23.50;34.00;;;;;;5035549;28;20100;-48
2022/03/17 08:43:52;;;;;;;9.23;8.27;;;23.40;34.00;;;;;;5022214;28;20040;-49
2022/03/17 08:49:19;;;;;;;8.73;7.82;;;23.50;34.10;;;;;;5022743;28;20675;-48
2022/03/17 08:51:46;;;;;;;9.40;8.27;;;23.40;34.00;;;;;;5039340;28;20237;-48
2022/03/17 08:54:12;;;;;;;9.00;8.10;;;23.40;34.00;;;;;;5040677;28;20143;-46
2022/03/17 08:56:38;;;;;;;10.05;8.95;;;23.40;34.00;;;;;;5036608;28;20029;-49
2022/03/17 08:59:05;;;;;;;9.48;8.43;;;23.40;34.00;;;;;;5028928;28;20414;-48
2022/03/17 09:01:31;;;;;;;9.43;8.52;;;23.40;33.90;;;;;;5030111;28;20300;-48
2022/03/17 09:03:57;;;;;;;9.15;8.25;;;23.40;33.90;;;;;;5041705;28;20047;-48
2022/03/17 09:06:24;;;;;;;10.15;9.05;;;23.40;33.80;;;;;;5043214;28;20049;-49
2022/03/17 09:08:50;;;;;;;9.45;8.20;;;23.50;33.90;;;;;;5044048;28;20446;-48
2022/03/17 09:11:16;;;;;;;9.90;8.90;;;23.40;33.80;;;;;;5044176;28;20029;-48
2022/03/17 09:13:42;;;;;;;9.07;8.20;;;23.40;33.80;;;;;;5032172;28;20112;-48
2022/03/17 09:16:07;;;;;;;9.80;8.80;;;23.40;33.80;;;;;;5024169;28;20117;-48
2022/03/17 09:18:34;;;;;;;8.80;7.90;;;23.40;33.70;;;;;;5024183;28;20037;-48
2022/03/17 09:21:00;;;;;;;9.73;8.73;;;23.40;33.70;;;;;;5005985;28;20295;-48
2022/03/17 09:23:30;;;;;;;8.45;7.65;;;23.40;33.80;;;;;;5023857;28;20036;-48
2022/03/17 09:25:57;;;;;;;9.48;8.57;;;23.40;33.70;;;;;;5026218;28;20120;-49
2022/03/17 09:28:23;;;;;;;8.85;8.00;;;23.40;33.60;;;;;;5032988;28;20116;-48
2022/03/17 09:30:52;;;;;;;9.73;8.55;;;23.40;33.60;;;;;;5037403;28;20529;-47
2022/03/17 09:33:18;;;;;;;8.85;7.97;;;23.40;33.60;;;;;;5040326;28;20045;-48
2022/03/17 09:35:44;;;;;;;8.57;7.78;;;23.40;33.60;;;;;;5044183;28;20080;-49
2022/03/17 09:38:10;;;;;;;9.00;8.10;;;23.40;33.50;;;;;;5042209;28;20021;-49
2022/03/17 09:40:36;;;;;;;8.30;7.50;;;23.40;33.60;;;;;;5043530;28;20025;-47
2022/03/17 09:43:18;;;;;;;9.38;8.43;;;23.40;33.60;;;;;;5023600;28;20034;-47
2022/03/17 09:45:59;;;;;;;8.65;7.78;;;23.40;33.60;;;;;;5024293;28;20100;-49
2022/03/17 09:48:26;;;;;;;7.82;7.03;;;23.40;33.60;;;;;;5024048;28;20505;-47
2022/03/17 09:50:56;;;;;;;8.10;7.30;;;23.40;33.60;;;;;;5023606;28;20109;-48
2022/03/17 09:53:23;;;;;;;8.07;7.28;;;23.40;34.20;;;;;;5023827;28;20037;-48
2022/03/17 09:55:50;;;;;;;7.45;6.72;;;23.40;33.50;;;;;;5025323;28;20528;-48
2022/03/17 09:58:16;;;;;;;7.90;7.07;;;23.50;33.60;;;;;;5043456;28;20515;-49
2022/03/17 10:00:48;;;;;;;7.30;6.60;;;23.50;33.50;;;;;;5039723;28;20026;-47
2022/03/17 10:03:16;;;;;;;8.10;7.27;;;23.50;33.50;;;;;;5023520;28;20018;-48
2022/03/17 10:05:45;;;;;;;7.93;7.13;;;23.50;33.50;;;;;;5023474;28;20347;-46
2022/03/17 10:08:11;;;;;;;8.27;7.40;;;23.50;33.50;;;;;;5023500;28;20025;-48
2022/03/17 10:10:38;;;;;;;7.93;7.15;;;23.50;33.50;;;;;;5022061;28;20084;-47
2022/03/17 10:13:06;;;;;;;9.30;7.70;;;23.50;33.40;;;;;;5023056;28;20037;-47
2022/03/17 10:15:32;;;;;;;8.48;7.38;;;23.50;33.40;;;;;;5031218;28;20025;-49
2022/03/17 10:17:58;;;;;;;8.35;7.38;;;23.50;33.40;;;;;;5032586;28;20921;-48
2022/03/17 10:20:29;;;;;;;8.27;7.47;;;23.50;33.60;;;;;;5027251;28;20117;-47
2022/03/17 10:22:57;;;;;;;7.80;7.00;;;23.50;33.90;;;;;;5035881;28;20021;-49
2022/03/17 10:25:31;;;;;;;8.63;7.82;;;23.50;34.10;;;;;;5027860;28;20021;-47
2022/03/17 10:27:58;;;;;;;9.90;7.07;;;23.50;34.40;;;;;;5040964;28;20109;-48
2022/03/17 10:30:35;;;;;;;7.85;6.80;;;23.50;34.20;;;;;;5036598;28;20614;-48
2022/03/17 10:33:15;;;;;;;8.32;7.10;;;23.50;34.30;;;;;;5041301;28;20109;-48
2022/03/17 10:35:49;;;;;;;8.40;7.50;;;23.60;34.20;;;;;;5037520;28;20103;-47
2022/03/17 10:38:22;;;;;;;8.52;7.45;;;23.60;34.10;;;;;;5040841;28;20032;-48
2022/03/17 10:41:03;;;;;;;8.45;7.65;;;23.60;34.00;;;;;;5024774;28;20021;-48
2022/03/17 10:43:30;;;;;;;8.23;7.43;;;23.60;34.00;;;;;;5023211;28;20060;-48
2022/03/17 10:46:11;;;;;;;8.45;7.60;;;23.60;33.90;;;;;;5026462;28;20025;-47
2022/03/17 10:48:58;;;;;;;8.95;8.05;;;23.60;33.90;;;;;;5026323;28;20041;-48
2022/03/17 10:51:44;;;;;;;8.48;7.68;;;23.70;34.00;;;;;;5025405;28;20033;-49
2022/03/17 10:54:18;;;;;;;10.10;9.02;;;23.70;34.10;;;;;;5026311;28;20029;-47
2022/03/17 10:56:57;;;;;;;10.70;9.65;;;23.70;34.20;;;;;;5030788;28;20707;-48
2022/03/17 10:59:22;;;;;;;9.82;8.90;;;23.70;34.30;;;;;;5026754;28;20060;-49
2022/03/17 11:01:48;;;;;;;9.30;8.40;;;23.70;34.30;;;;;;5032250;28;20116;-48
2022/03/17 11:04:15;;;;;;;9.95;9.05;;;23.70;34.30;;;;;;5045589;28;20033;-50
2022/03/17 11:06:41;;;;;;;9.13;8.23;;;23.70;34.30;;;;;;5024274;28;20468;-48
2022/03/17 11:09:08;;;;;;;9.63;8.73;;;23.70;34.30;;;;;;5023779;28;20033;-47
2022/03/17 11:11:35;;;;;;;9.32;8.40;;;23.80;34.40;;;;;;5028253;28;20596;-47
2022/03/17 11:14:02;;;;;;;9.20;8.30;;;23.80;34.50;;;;;;5046582;28;20119;-48
2022/03/17 11:16:42;;;;;;;9.32;8.48;;;23.80;34.40;;;;;;5045436;28;20552;-48
2022/03/17 11:19:13;;;;;;;9.07;8.25;;;23.80;34.30;;;;;;5044738;28;20440;-48
2022/03/17 11:21:45;;;;;;;9.35;8.00;;;23.80;34.20;;;;;;5046039;28;20028;-48
2022/03/17 11:24:19;;;;;;;8.13;7.22;;;23.80;34.10;;;;;;5038291;28;20429;-48
2022/03/17 11:26:46;;;;;;;8.27;7.13;;;23.80;34.00;;;;;;5025942;28;20113;-48
2022/03/17 11:29:21;;;;;;;8.60;7.28;;;23.80;34.00;;;;;;5039064;28;20036;-48
2022/03/17 11:31:56;;;;;;;7.57;6.82;;;23.80;33.80;;;;;;5036695;28;20160;-47
2022/03/17 11:34:47;;;;;;;8.45;7.60;;;23.90;34.00;;;;;;5042720;28;20019;-48
2022/03/17 11:37:25;;;;;;;9.00;7.32;;;23.90;33.90;;;;;;5036780;28;20144;-48
2022/03/17 11:40:04;;;;;;;7.65;6.93;;;23.80;33.80;;;;;;5043978;28;20099;-47
2022/03/17 11:42:52;;;;;;;7.97;7.18;;;23.80;33.70;;;;;;5044158;28;20037;-48
2022/03/17 11:45:18;;;;;;;7.75;6.95;;;23.80;33.70;;;;;;5044420;28;20056;-48
2022/03/17 11:47:50;;;;;;;9.25;7.53;;;23.80;33.70;;;;;;5041859;28;20061;-47
2022/03/17 11:50:36;;;;;;;8.77;7.47;;;23.80;33.70;;;;;;5030523;28;20033;-48
2022/03/17 11:53:12;;;;;;;7.90;7.10;;;23.80;33.70;;;;;;5025830;28;20037;-49
2022/03/17 11:55:52;;;;;;;8.13;7.22;;;23.80;33.60;;;;;;5025286;28;20021;-48
2022/03/17 11:58:39;;;;;;;7.35;6.57;;;23.80;33.60;;;;;;5041479;28;20787;-48
2022/03/17 12:01:12;;;;;;;7.30;6.60;;;23.80;33.60;;;;;;5038717;28;20091;-48
2022/03/17 12:03:50;;;;;;;8.32;7.40;;;23.80;33.50;;;;;;5025614;28;20099;-49
2022/03/17 12:06:21;;;;;;;7.60;6.85;;;23.80;33.50;;;;;;5025495;28;20065;-49
2022/03/17 12:08:51;;;;;;;7.38;6.68;;;23.80;34.10;;;;;;5024382;28;20071;-47
2022/03/17 12:11:22;;;;;;;7.88;7.07;;;23.80;33.40;;;;;;5024603;28;20040;-46
2022/03/17 12:14:23;;;;;;;7.78;6.97;;;23.80;33.30;;;;;;5039586;28;20025;-48
2022/03/17 12:16:49;;;;;;;6.97;6.38;;;23.80;33.30;;;;;;5033654;28;20021;-48
2022/03/17 12:19:35;;;;;;;8.27;7.38;;;23.80;33.30;;;;;;5044193;28;20051;-48
2022/03/17 12:22:12;;;;;;;7.00;6.22;;;23.90;33.30;;;;;;5029263;28;20491;-48
2022/03/17 12:24:45;;;;;;;7.88;6.70;;;23.80;33.10;;;;;;5034149;28;20041;-48
2022/03/17 12:27:20;;;;;;;7.45;5.57;;;23.80;33.20;;;;;;5036052;28;20028;-48
2022/03/17 12:29:49;;;;;;;6.60;5.90;;;23.90;33.30;;;;;;5038973;28;20124;-48
2022/03/17 12:32:16;;;;;;;7.72;6.00;;;23.90;33.10;;;;;;5030723;28;20614;-47
2022/03/17 12:34:54;;;;;;;8.88;6.57;;;23.90;33.20;;;;;;5040009;28;20096;-47
2022/03/17 12:37:31;;;;;;;6.43;5.68;;;24.00;33.70;;;;;;5029155;28;20041;-47
2022/03/17 12:39:59;;;;;;;7.75;6.53;;;24.00;33.00;;;;;;5040768;28;20621;-48
2022/03/17 12:42:36;;;;;;;5.57;4.88;;;24.00;32.90;;;;;;5028643;28;20025;-47
2022/03/17 12:45:08;;;;;;;6.38;5.78;;;24.00;32.90;;;;;;5031640;28;20102;-47
2022/03/17 12:47:35;;;;;;;5.72;4.93;;;24.10;32.90;;;;;;5040516;28;20498;-48
2022/03/17 12:50:06;;;;;;;7.13;5.53;;;24.10;32.90;;;;;;5031768;28;20045;-48
2022/03/17 12:52:33;;;;;;;6.10;5.47;;;24.10;32.70;;;;;;5030403;28;20100;-48
2022/03/17 12:55:02;;;;;;;6.95;5.63;;;24.20;32.60;;;;;;5034611;28;20037;-48
2022/03/17 12:57:30;;;;;;;6.38;5.38;;;24.20;32.60;;;;;;5041044;28;20075;-47
2022/03/17 12:59:57;;;;;;;5.88;5.15;;;24.20;32.50;;;;;;5039112;28;20036;-48
2022/03/17 13:02:24;;;;;;;6.57;5.57;;;24.20;32.50;;;;;;5042888;28;20037;-47